createdAt,value
2022-10-14T00:02:29.382Z,98364.44
2022-10-14T00:05:31.450Z,98358.25
2022-10-14T00:08:33.551Z,98358.38
2022-10-14T00:11:37.486Z,98356.31
2022-10-14T00:14:40.208Z,98350.53
2022-10-14T00:17:41.975Z,98355.66
2022-10-14T00:20:43.703Z,98355.38
2022-10-14T00:23:46.908Z,98355.47
2022-10-14T00:26:51.302Z,98358.94
2022-10-14T00:29:53.582Z,98359.06
2022-10-14T00:32:55.786Z,98353.25
2022-10-14T00:35:59.634Z,98352.00
2022-10-14T00:39:05.898Z,98342.72
2022-10-14T00:42:14.274Z,98336.88
2022-10-14T00:45:21.372Z,98341.84
2022-10-14T00:48:23.884Z,98340.66
2022-10-14T00:51:26.431Z,98338.69
2022-10-14T00:54:32.656Z,98342.13
2022-10-14T00:57:36.026Z,98346.03
2022-10-14T01:00:39.338Z,98337.19
2022-10-14T01:03:42.860Z,98337.44
2022-10-14T01:07:06.020Z,98328.88
2022-10-14T01:10:25.969Z,98332.47
2022-10-14T01:13:41.269Z,98331.63
2022-10-14T01:16:59.514Z,98322.25
2022-10-14T01:20:26.614Z,98333.06
2022-10-14T01:24:17.032Z,98332.06
2022-10-14T01:27:25.875Z,98323.22
2022-10-14T01:30:34.448Z,98319.91
2022-10-14T01:33:40.070Z,98329.97
2022-10-14T01:37:04.868Z,98320.59
2022-10-14T01:40:16.342Z,98320.31
2022-10-14T01:43:19.500Z,98316.72
2022-10-14T01:46:23.604Z,98312.28
2022-10-14T01:49:37.033Z,98316.28
2022-10-14T01:52:43.371Z,98313.13
2022-10-14T01:55:47.513Z,98311.19
2022-10-14T01:58:51.000Z,98321.78
2022-10-14T02:01:53.489Z,98311.00
2022-10-14T02:04:55.501Z,98317.19
2022-10-14T02:08:03.647Z,98299.22
2022-10-14T02:11:17.145Z,98309.34
2022-10-14T02:14:47.386Z,98304.09
2022-10-14T02:17:54.028Z,98304.50
2022-10-14T02:21:07.613Z,98299.81
2022-10-14T02:24:31.622Z,98297.38
2022-10-14T02:27:34.526Z,98293.47
2022-10-14T02:30:41.101Z,98298.06
2022-10-14T02:33:46.590Z,98298.19
2022-10-14T02:36:49.107Z,98299.81
2022-10-14T02:40:03.359Z,98301.25
2022-10-14T02:43:10.213Z,98300.97
2022-10-14T02:46:12.643Z,98289.47
2022-10-14T02:49:16.024Z,98298.34
2022-10-14T02:52:19.869Z,98300.44
2022-10-14T02:55:22.659Z,98292.84
2022-10-14T02:58:25.316Z,98288.28
2022-10-14T03:01:27.541Z,98290.53
2022-10-14T03:04:29.928Z,98295.09
2022-10-14T03:07:32.023Z,98291.91
2022-10-14T03:10:38.251Z,98291.91
2022-10-14T03:13:42.768Z,98295.50
2022-10-14T03:16:48.035Z,98300.47
2022-10-14T03:19:55.932Z,98299.91
2022-10-14T03:23:00.109Z,98308.47
2022-10-14T03:26:02.647Z,98301.53
2022-10-14T03:29:10.181Z,98300.69
2022-10-14T03:32:31.017Z,98307.81
2022-10-14T03:35:52.999Z,98295.56
2022-10-14T03:39:03.742Z,98306.22
2022-10-14T03:42:26.097Z,98302.06
2022-10-14T03:45:28.642Z,98297.81
2022-10-14T03:48:33.103Z,98297.66
2022-10-14T03:51:35.417Z,98290.59
2022-10-14T03:54:48.630Z,98293.44
2022-10-14T03:57:52.671Z,98285.13
2022-10-14T04:00:55.429Z,98291.22
2022-10-14T04:04:17.592Z,98279.31
2022-10-14T04:07:21.096Z,98282.78
2022-10-14T04:10:28.642Z,98287.88
2022-10-14T04:13:31.461Z,98283.69
2022-10-14T04:16:34.069Z,98278.97
2022-10-14T04:19:45.553Z,98285.31
2022-10-14T04:22:50.755Z,98276.16
2022-10-14T04:25:54.154Z,98278.09
2022-10-14T04:29:00.319Z,98279.44
2022-10-14T04:32:10.382Z,98278.25
2022-10-14T04:35:13.441Z,98274.56
2022-10-14T04:38:19.815Z,98271.31
2022-10-14T04:41:28.812Z,98269.00
2022-10-14T04:44:34.642Z,98274.50
2022-10-14T04:47:38.134Z,98272.84
2022-10-14T04:50:42.026Z,98270.38
2022-10-14T04:54:16.547Z,98275.47
2022-10-14T04:57:24.202Z,98275.19
2022-10-14T05:00:26.624Z,98277.81
2022-10-14T05:03:34.149Z,98270.38
2022-10-14T05:06:37.849Z,98275.03
2022-10-14T05:09:45.129Z,98268.06
2022-10-14T05:13:26.741Z,98268.34
2022-10-14T05:17:21.642Z,98263.09
2022-10-14T05:20:26.155Z,98265.06
2022-10-14T05:23:31.363Z,98267.75
2022-10-14T05:26:34.887Z,98272.72
2022-10-14T05:29:41.273Z,98269.28
2022-10-14T05:32:44.314Z,98270.25
2022-10-14T05:35:58.487Z,98276.34
2022-10-14T05:39:03.345Z,98272.72
2022-10-14T05:42:10.250Z,98264.41
2022-10-14T05:45:12.337Z,98269.03
2022-10-14T05:48:21.023Z,98259.09
2022-10-14T05:51:24.617Z,98274.31
2022-10-14T05:54:33.154Z,98266.56
2022-10-14T05:57:37.082Z,98269.91
2022-10-14T06:00:40.676Z,98272.13
2022-10-14T06:03:51.653Z,98275.59
2022-10-14T06:06:54.045Z,98278.06
2022-10-14T06:09:56.325Z,98280.78
2022-10-14T06:12:58.208Z,98272.28
2022-10-14T06:16:09.199Z,98274.47
2022-10-14T06:19:12.037Z,98280.50
2022-10-14T06:22:16.151Z,98278.59
2022-10-14T06:25:18.786Z,98278.47
2022-10-14T06:28:21.463Z,98279.81
2022-10-14T06:31:24.457Z,98288.22
2022-10-14T06:34:28.822Z,98291.53
2022-10-14T06:37:30.785Z,98290.91
2022-10-14T06:40:33.823Z,98295.03
2022-10-14T06:43:35.980Z,98287.25
2022-10-14T06:46:38.215Z,98295.34
2022-10-14T06:49:40.398Z,98290.97
2022-10-14T06:52:46.064Z,98295.81
2022-10-14T06:56:06.348Z,98296.38
2022-10-14T06:59:08.831Z,98302.50
2022-10-14T07:02:11.692Z,98296.63
2022-10-14T07:05:13.732Z,98287.09
2022-10-14T07:08:20.632Z,98296.13
2022-10-14T07:11:23.112Z,98294.72
2022-10-14T07:14:29.735Z,98296.31
2022-10-14T07:17:31.945Z,98291.91
2022-10-14T07:20:36.469Z,98290.47
2022-10-14T07:23:56.016Z,98292.88
2022-10-14T07:27:00.496Z,98297.00
2022-10-14T07:30:02.992Z,98283.66
2022-10-14T07:33:05.783Z,98294.75
2022-10-14T07:36:11.660Z,98304.78
2022-10-14T07:39:18.480Z,98303.47
2022-10-14T07:45:36.809Z,98305.44
2022-10-14T07:48:52.592Z,98304.63
2022-10-14T07:52:00.576Z,98301.28
2022-10-14T07:55:06.340Z,98308.91
2022-10-14T07:58:11.203Z,98308.78
2022-10-14T08:01:15.769Z,98297.72
2022-10-14T08:04:24.024Z,98306.19
2022-10-14T08:07:29.981Z,98298.03
2022-10-14T08:10:32.346Z,98303.50
2022-10-14T08:13:37.886Z,98301.28
2022-10-14T08:16:42.338Z,98297.38
2022-10-14T08:19:49.825Z,98300.38
2022-10-14T08:22:51.761Z,98302.56
2022-10-14T08:25:56.637Z,98299.63
2022-10-14T08:29:04.275Z,98304.59
2022-10-14T08:32:06.174Z,98305.97
2022-10-14T08:35:08.776Z,98311.38
2022-10-14T08:38:13.633Z,98309.00
2022-10-14T08:41:44.513Z,98307.28
2022-10-14T08:44:52.448Z,98309.47
2022-10-14T08:47:57.218Z,98301.84
2022-10-14T08:51:12.863Z,98312.63
2022-10-14T08:54:31.056Z,98309.84
2022-10-14T08:57:40.646Z,98312.63
2022-10-14T09:00:43.114Z,98315.34
2022-10-14T09:03:45.718Z,98311.56
2022-10-14T09:06:49.583Z,98308.88
2022-10-14T09:09:59.009Z,98308.03
2022-10-14T09:13:17.331Z,98304.34
2022-10-14T09:16:22.074Z,98303.97
2022-10-14T09:19:31.874Z,98307.97
2022-10-14T09:22:35.040Z,98308.28
2022-10-14T09:25:37.892Z,98312.06
2022-10-14T09:28:43.971Z,98314.38
2022-10-14T09:31:45.702Z,98311.25
2022-10-14T09:34:52.448Z,98319.28
2022-10-14T09:37:54.293Z,98321.78
2022-10-14T09:41:00.136Z,98320.16
2022-10-14T09:44:22.067Z,98331.31
2022-10-14T09:47:24.399Z,98321.72
2022-10-14T09:50:29.328Z,98327.41
2022-10-14T09:53:34.672Z,98323.97
2022-10-14T09:56:42.006Z,98322.69
2022-10-14T09:59:54.090Z,98326.34
2022-10-14T10:02:56.112Z,98324.34
2022-10-14T10:06:06.800Z,98330.63
2022-10-14T10:09:18.787Z,98333.53
2022-10-14T10:12:34.963Z,98329.31
2022-10-14T10:15:36.960Z,98328.91
2022-10-14T10:18:38.820Z,98328.25
2022-10-14T10:21:40.616Z,98336.03
2022-10-14T10:24:42.788Z,98333.22
2022-10-14T10:27:46.267Z,98327.50
2022-10-14T10:31:00.071Z,98324.09
2022-10-14T10:34:31.073Z,98319.66
2022-10-14T10:37:48.969Z,98319.31
2022-10-14T10:41:03.451Z,98322.38
2022-10-14T10:44:05.428Z,98318.44
2022-10-14T10:47:28.691Z,98309.41
2022-10-14T10:50:42.062Z,98309.91
2022-10-14T10:54:07.275Z,98305.16
2022-10-14T10:58:07.486Z,98294.81
2022-10-14T11:01:16.713Z,98308.22
2022-10-14T11:04:24.733Z,98297.22
2022-10-14T11:07:49.723Z,98298.53
2022-10-14T11:11:36.487Z,98297.22
2022-10-14T11:14:47.788Z,98292.28
2022-10-14T11:17:58.394Z,98287.66
2022-10-14T11:21:16.177Z,98277.44
2022-10-14T11:24:27.214Z,98275.28
2022-10-14T11:27:32.246Z,98276.09
2022-10-14T11:30:52.051Z,98272.47
2022-10-14T11:34:12.611Z,98274.13
2022-10-14T11:37:42.410Z,98269.81
2022-10-14T11:41:06.348Z,98266.84
2022-10-14T11:44:16.388Z,98255.47
2022-10-14T11:47:32.171Z,98262.59
2022-10-14T11:50:43.007Z,98266.53
2022-10-14T11:54:00.327Z,98261.41
2022-10-14T11:57:11.555Z,98253.59
2022-10-14T12:00:15.918Z,98255.91
2022-10-14T12:03:26.674Z,98253.59
2022-10-14T12:06:35.256Z,98252.47
2022-10-14T12:09:39.883Z,98253.06
2022-10-14T12:12:43.138Z,98248.66
2022-10-14T12:15:50.268Z,98259.84
2022-10-14T12:18:58.363Z,98251.94
2022-10-14T12:22:25.022Z,98252.66
2022-10-14T12:25:30.942Z,98245.59
2022-10-14T12:28:34.645Z,98239.19
2022-10-14T12:31:38.637Z,98241.44
2022-10-14T12:34:41.792Z,98245.22
2022-10-14T12:37:54.465Z,98248.50
2022-10-14T12:41:39.603Z,98239.78
2022-10-14T12:44:56.303Z,98244.06
2022-10-14T12:48:15.836Z,98239.63
2022-10-14T12:51:20.775Z,98238.78
2022-10-14T12:54:23.696Z,98249.34
2022-10-14T12:57:26.708Z,98238.78
2022-10-14T13:00:32.597Z,98249.53
2022-10-14T13:03:45.870Z,98239.66
2022-10-14T13:07:38.977Z,98238.13
2022-10-14T13:10:44.986Z,98244.91
2022-10-14T13:13:50.473Z,98234.53
2022-10-14T13:16:52.275Z,98231.84
2022-10-14T13:19:54.191Z,98230.84
2022-10-14T13:23:33.988Z,98224.00
2022-10-14T13:26:54.353Z,98223.94
2022-10-14T13:30:11.042Z,98227.34
2022-10-14T13:33:25.186Z,98233.53
2022-10-14T13:36:37.099Z,98226.94
2022-10-14T13:39:39.228Z,98224.94
2022-10-14T13:42:41.445Z,98221.63
2022-10-14T13:45:56.497Z,98224.44
2022-10-14T13:49:03.669Z,98221.13
2022-10-14T13:52:08.131Z,98210.13
2022-10-14T13:55:16.291Z,98211.13
2022-10-14T13:58:24.008Z,98208.47
2022-10-14T14:01:37.314Z,98220.31
2022-10-14T14:04:39.303Z,98216.19
2022-10-14T14:11:22.102Z,98203.34
2022-10-14T14:14:38.772Z,98209.63
2022-10-14T14:17:43.694Z,98202.88
2022-10-14T14:20:58.720Z,98201.88
2022-10-14T14:24:01.499Z,98188.03
2022-10-14T14:27:03.959Z,98183.78
2022-10-14T14:30:21.063Z,98179.47
2022-10-14T14:33:28.121Z,98176.81
2022-10-14T14:36:50.828Z,98189.19
2022-10-14T14:40:07.018Z,98188.84
2022-10-14T14:43:09.745Z,98189.66
2022-10-14T14:46:19.291Z,98186.88
2022-10-14T14:49:28.739Z,98190.97
2022-10-14T14:52:34.489Z,98182.38
2022-10-14T14:55:53.989Z,98183.72
2022-10-14T14:58:58.384Z,98191.00
2022-10-14T15:02:01.881Z,98188.69
2022-10-14T15:05:09.001Z,98187.34
2022-10-14T15:08:32.561Z,98185.72
2022-10-14T15:11:34.545Z,98185.06
2022-10-14T15:14:46.517Z,98184.56
2022-10-14T15:17:48.580Z,98178.81
2022-10-14T15:20:51.169Z,98182.75
2022-10-14T15:23:53.635Z,98178.31
2022-10-14T15:26:55.708Z,98179.78
2022-10-14T15:30:20.302Z,98181.78
2022-10-14T15:33:26.886Z,98177.47
2022-10-14T15:36:31.416Z,98174.69
2022-10-14T15:39:33.623Z,98170.91
2022-10-14T15:42:35.703Z,98176.16
2022-10-14T15:45:37.800Z,98176.50
2022-10-14T15:48:42.188Z,98181.13
2022-10-14T15:51:44.682Z,98176.19
2022-10-14T15:54:49.402Z,98181.47
2022-10-14T15:57:52.733Z,98182.44
2022-10-14T16:00:55.216Z,98182.13
2022-10-14T16:03:58.309Z,98182.94
2022-10-14T16:07:00.614Z,98181.31
2022-10-14T16:10:03.204Z,98175.50
2022-10-14T16:13:05.447Z,98178.81
2022-10-14T16:16:10.469Z,98177.19
2022-10-14T16:19:12.937Z,98176.81
2022-10-14T16:22:15.294Z,98179.31
2022-10-14T16:25:30.251Z,98186.91
2022-10-14T16:28:32.500Z,98176.50
2022-10-14T16:31:34.539Z,98179.28
2022-10-14T16:34:36.797Z,98178.47
2022-10-14T16:37:39.404Z,98182.13
2022-10-14T16:40:42.761Z,98174.84
2022-10-14T16:43:45.226Z,98176.03
2022-10-14T16:47:06.427Z,98183.78
2022-10-14T16:50:09.531Z,98184.09
2022-10-14T16:53:30.291Z,98178.00
2022-10-14T16:56:51.423Z,98187.38
2022-10-14T16:59:53.324Z,98183.44
2022-10-14T17:02:55.515Z,98178.16
2022-10-14T17:05:58.932Z,98177.34
2022-10-14T17:09:00.702Z,98179.63
2022-10-14T17:12:06.945Z,98175.50
2022-10-14T17:15:12.812Z,98175.34
2022-10-14T17:18:17.789Z,98174.19
2022-10-14T17:21:20.057Z,98177.16
2022-10-14T17:24:22.441Z,98175.84
2022-10-14T17:27:24.961Z,98179.41
2022-10-14T17:30:27.339Z,98175.50
2022-10-14T17:33:29.309Z,98178.97
2022-10-14T17:36:31.526Z,98181.63
2022-10-14T17:39:33.863Z,98182.44
2022-10-14T17:42:35.943Z,98190.66
2022-10-14T17:45:38.424Z,98192.66
2022-10-14T17:48:42.694Z,98192.34
2022-10-14T17:51:48.235Z,98185.56
2022-10-14T17:54:50.515Z,98183.09
2022-10-14T17:57:52.659Z,98190.69
2022-10-14T18:00:54.896Z,98185.06
2022-10-14T18:03:59.421Z,98185.38
2022-10-14T18:07:01.714Z,98183.94
2022-10-14T18:10:04.966Z,98178.81
2022-10-14T18:13:08.666Z,98173.03
2022-10-14T18:16:13.755Z,98175.50
2022-10-14T18:19:18.958Z,98174.84
2022-10-14T18:22:23.747Z,98178.97
2022-10-14T18:25:25.827Z,98177.16
2022-10-14T18:28:27.905Z,98170.22
2022-10-14T18:31:31.779Z,98172.22
2022-10-14T18:34:34.172Z,98178.47
2022-10-14T18:37:36.139Z,98177.00
2022-10-14T18:40:38.408Z,98163.66
2022-10-14T18:43:40.848Z,98168.75
2022-10-14T18:46:42.767Z,98173.72
2022-10-14T18:49:44.860Z,98167.25
2022-10-14T18:52:47.961Z,98171.38
2022-10-14T18:55:50.692Z,98169.56
2022-10-14T18:58:58.266Z,98172.84
2022-10-14T19:02:00.558Z,98174.03
2022-10-14T19:05:02.807Z,98175.66
2022-10-14T19:08:05.190Z,98180.94
2022-10-14T19:11:09.817Z,98176.69
2022-10-14T19:14:13.474Z,98180.78
2022-10-14T19:17:15.624Z,98171.06
2022-10-14T19:20:18.416Z,98179.81
2022-10-14T19:23:27.617Z,98176.19
2022-10-14T19:26:35.127Z,98181.78
2022-10-14T19:29:37.380Z,98183.78
2022-10-14T19:32:39.561Z,98181.78
2022-10-14T19:35:41.500Z,98181.47
2022-10-14T19:38:51.186Z,98174.38
2022-10-14T19:41:53.696Z,98180.59
2022-10-14T19:44:55.836Z,98173.53
2022-10-14T19:47:58.394Z,98177.16
2022-10-14T19:51:06.119Z,98178.97
2022-10-14T19:54:12.925Z,98183.75
2022-10-14T19:57:17.183Z,98177.16
2022-10-14T20:00:19.824Z,98177.50
2022-10-14T20:03:21.910Z,98182.75
2022-10-14T20:06:26.026Z,98187.88
2022-10-14T20:09:29.081Z,98185.06
2022-10-14T20:12:31.214Z,98184.06
2022-10-14T20:15:33.058Z,98178.47
2022-10-14T20:18:38.252Z,98186.03
2022-10-14T20:21:40.657Z,98188.31
2022-10-14T20:24:43.722Z,98187.34
2022-10-14T20:27:45.631Z,98187.72
2022-10-14T20:30:49.162Z,98189.69
2022-10-14T20:33:52.056Z,98186.69
2022-10-14T20:36:54.169Z,98189.16
2022-10-14T20:39:56.552Z,98196.59
2022-10-14T20:42:58.523Z,98192.94
2022-10-14T20:46:00.569Z,98191.44
2022-10-14T20:49:02.622Z,98188.66
2022-10-14T20:52:05.195Z,98190.66
2022-10-14T20:55:07.402Z,98185.69
2022-10-14T20:58:09.335Z,98175.97
2022-10-14T21:01:12.806Z,98172.66
2022-10-14T21:04:14.943Z,98166.22
2022-10-14T21:07:18.113Z,98163.94
2022-10-14T21:10:20.339Z,98167.53
2022-10-14T21:13:22.193Z,98170.50
2022-10-14T21:16:32.775Z,98171.31
2022-10-14T21:19:35.141Z,98170.84
2022-10-14T21:22:37.111Z,98162.91
2022-10-14T21:25:39.431Z,98161.28
2022-10-14T21:28:41.701Z,98158.13
2022-10-14T21:31:44.614Z,98159.59
2022-10-14T21:34:46.553Z,98159.75
2022-10-14T21:37:48.255Z,98156.97
2022-10-14T21:40:50.192Z,98153.66
2022-10-14T21:43:52.163Z,98153.00
2022-10-14T21:46:54.366Z,98145.09
2022-10-14T21:49:56.345Z,98149.38
2022-10-14T21:52:58.291Z,98142.47
2022-10-14T21:56:00.471Z,98146.41
2022-10-14T21:59:02.771Z,98141.81
2022-10-14T22:02:04.788Z,98135.88
2022-10-14T22:05:06.919Z,98134.25
2022-10-14T22:08:08.718Z,98131.94
2022-10-14T22:11:35.221Z,98116.44
2022-10-14T22:14:37.295Z,98118.41
2022-10-14T22:17:39.280Z,98120.22
2022-10-14T22:20:41.282Z,98118.72
2022-10-14T22:23:43.966Z,98116.41
2022-10-14T22:26:45.789Z,98120.38
2022-10-14T22:29:47.784Z,98121.69
2022-10-14T22:32:49.884Z,98109.16
2022-10-14T22:35:51.818Z,98110.97
2022-10-14T22:38:54.650Z,98111.78
2022-10-14T22:41:56.475Z,98099.59
2022-10-14T22:44:58.475Z,98105.69
2022-10-14T22:48:00.427Z,98119.88
2022-10-14T22:51:10.106Z,98120.38
2022-10-14T22:54:12.286Z,98120.38
2022-10-14T22:57:14.015Z,98103.88
2022-10-14T23:00:16.476Z,98112.09
2022-10-14T23:03:18.884Z,98108.81
2022-10-14T23:06:20.704Z,98115.56
2022-10-14T23:09:22.954Z,98107.78
2022-10-14T23:12:25.455Z,98103.81
2022-10-14T23:15:27.818Z,98104.78
2022-10-14T23:18:31.832Z,98101.84
2022-10-14T23:21:36.069Z,98097.81
2022-10-14T23:24:37.948Z,98100.47
2022-10-14T23:27:39.825Z,98088.59
2022-10-14T23:30:41.941Z,98092.38
2022-10-14T23:33:44.188Z,98087.78
2022-10-14T23:36:46.062Z,98088.44
2022-10-14T23:39:48.422Z,98086.59
2022-10-14T23:42:50.210Z,98086.91
2022-10-14T23:49:07.056Z,98090.38
2022-10-14T23:52:16.435Z,98088.06
2022-10-14T23:55:18.268Z,98090.03
2022-10-14T23:58:20.160Z,98081.78
